sensor_id;sensor_type;location;lat;lon;timestamp;P1;durP1;ratioP1;P2;durP2;ratioP2
5620;SDS011;2832;50.864;12.186;2022-12-11T00:01:08;1.10;;;1.10;;
5620;SDS011;2832;50.864;12.186;2022-12-11T00:03:36;1.03;;;1.03;;
5620;SDS011;2832;50.864;12.186;2022-12-11T00:06:06;1.10;;;1.10;;
5620;SDS011;2832;50.864;12.186;2022-12-11T00:08:34;1.00;;;1.00;;
5620;SDS011;2832;50.864;12.186;2022-12-11T00:11:02;1.10;;;1.10;;
5620;SDS011;2832;50.864;12.186;2022-12-11T00:13:31;1.10;;;1.10;;
5620;SDS011;2832;50.864;12.186;2022-12-11T00:16:00;1.10;;;1.10;;
5620;SDS011;2832;50.864;12.186;2022-12-11T00:18:30;1.10;;;1.10;;
5620;SDS011;2832;50.864;12.186;2022-12-11T00:21:00;1.10;;;1.10;;
5620;SDS011;2832;50.864;12.186;2022-12-11T00:23:28;1.00;;;1.00;;
5620;SDS011;2832;50.864;12.186;2022-12-11T00:25:57;1.10;;;1.10;;
5620;SDS011;2832;50.864;12.186;2022-12-11T00:28:24;1.00;;;1.00;;
5620;SDS011;2832;50.864;12.186;2022-12-11T00:30:52;1.10;;;1.10;;
5620;SDS011;2832;50.864;12.186;2022-12-11T00:33:20;1.00;;;1.00;;
5620;SDS011;2832;50.864;12.186;2022-12-11T00:35:50;1.10;;;1.10;;
5620;SDS011;2832;50.864;12.186;2022-12-11T00:38:19;1.10;;;1.10;;
5620;SDS011;2832;50.864;12.186;2022-12-11T00:40:48;1.10;;;1.10;;
5620;SDS011;2832;50.864;12.186;2022-12-11T00:43:16;1.10;;;1.10;;
5620;SDS011;2832;50.864;12.186;2022-12-11T00:45:45;1.10;;;1.10;;
5620;SDS011;2832;50.864;12.186;2022-12-11T00:48:14;1.10;;;1.10;;
5620;SDS011;2832;50.864;12.186;2022-12-11T00:50:42;1.10;;;1.10;;
5620;SDS011;2832;50.864;12.186;2022-12-11T00:53:12;1.10;;;1.10;;
5620;SDS011;2832;50.864;12.186;2022-12-11T00:55:41;1.10;;;1.10;;
5620;SDS011;2832;50.864;12.186;2022-12-11T00:58:10;1.10;;;1.10;;
5620;SDS011;2832;50.864;12.186;2022-12-11T01:00:39;1.00;;;1.00;;
5620;SDS011;2832;50.864;12.186;2022-12-11T01:03:08;1.00;;;1.00;;
5620;SDS011;2832;50.864;12.186;2022-12-11T01:05:37;1.10;;;1.10;;
5620;SDS011;2832;50.864;12.186;2022-12-11T01:08:06;1.10;;;1.10;;
5620;SDS011;2832;50.864;12.186;2022-12-11T01:10:35;1.10;;;1.10;;
5620;SDS011;2832;50.864;12.186;2022-12-11T01:13:03;1.10;;;1.10;;
5620;SDS011;2832;50.864;12.186;2022-12-11T01:15:37;1.10;;;1.10;;
5620;SDS011;2832;50.864;12.186;2022-12-11T01:18:06;1.10;;;1.10;;
5620;SDS011;2832;50.864;12.186;2022-12-11T01:20:36;1.10;;;1.10;;
5620;SDS011;2832;50.864;12.186;2022-12-11T01:23:05;1.00;;;1.00;;
5620;SDS011;2832;50.864;12.186;2022-12-11T01:25:34;1.10;;;1.10;;
5620;SDS011;2832;50.864;12.186;2022-12-11T01:28:04;1.10;;;1.10;;
5620;SDS011;2832;50.864;12.186;2022-12-11T01:30:33;1.10;;;1.10;;
5620;SDS011;2832;50.864;12.186;2022-12-11T01:33:01;1.10;;;1.10;;
5620;SDS011;2832;50.864;12.186;2022-12-11T01:35:29;1.10;;;1.10;;
5620;SDS011;2832;50.864;12.186;2022-12-11T01:37:58;1.00;;;1.00;;
5620;SDS011;2832;50.864;12.186;2022-12-11T01:40:26;1.10;;;1.10;;
5620;SDS011;2832;50.864;12.186;2022-12-11T01:42:56;1.10;;;1.10;;
5620;SDS011;2832;50.864;12.186;2022-12-11T01:45:31;1.10;;;1.10;;
5620;SDS011;2832;50.864;12.186;2022-12-11T01:48:06;1.10;;;1.10;;
5620;SDS011;2832;50.864;12.186;2022-12-11T01:50:38;1.10;;;1.10;;
5620;SDS011;2832;50.864;12.186;2022-12-11T01:53:09;1.00;;;1.00;;
5620;SDS011;2832;50.864;12.186;2022-12-11T01:55:43;1.10;;;1.10;;
5620;SDS011;2832;50.864;12.186;2022-12-11T01:58:14;1.07;;;1.07;;
5620;SDS011;2832;50.864;12.186;2022-12-11T02:00:43;1.10;;;1.10;;
5620;SDS011;2832;50.864;12.186;2022-12-11T02:03:11;1.00;;;1.00;;
5620;SDS011;2832;50.864;12.186;2022-12-11T02:05:40;1.10;;;1.10;;
5620;SDS011;2832;50.864;12.186;2022-12-11T02:08:09;1.00;;;1.00;;
5620;SDS011;2832;50.864;12.186;2022-12-11T02:10:47;1.10;;;1.10;;
5620;SDS011;2832;50.864;12.186;2022-12-11T02:13:27;1.10;;;1.10;;
5620;SDS011;2832;50.864;12.186;2022-12-11T02:16:03;1.10;;;1.10;;
5620;SDS011;2832;50.864;12.186;2022-12-11T02:18:35;1.10;;;1.10;;
5620;SDS011;2832;50.864;12.186;2022-12-11T02:21:12;1.10;;;1.10;;
5620;SDS011;2832;50.864;12.186;2022-12-11T02:23:52;1.03;;;1.03;;
5620;SDS011;2832;50.864;12.186;2022-12-11T02:26:55;1.00;;;1.00;;
5620;SDS011;2832;50.864;12.186;2022-12-11T02:29:41;1.00;;;1.00;;
5620;SDS011;2832;50.864;12.186;2022-12-11T02:32:13;1.10;;;1.10;;
5620;SDS011;2832;50.864;12.186;2022-12-11T02:34:46;1.00;;;1.00;;
5620;SDS011;2832;50.864;12.186;2022-12-11T02:37:20;1.10;;;1.10;;
5620;SDS011;2832;50.864;12.186;2022-12-11T02:39:51;1.00;;;1.00;;
5620;SDS011;2832;50.864;12.186;2022-12-11T02:42:20;1.10;;;1.10;;
5620;SDS011;2832;50.864;12.186;2022-12-11T02:44:53;1.10;;;1.10;;
5620;SDS011;2832;50.864;12.186;2022-12-11T02:47:24;1.10;;;1.10;;
5620;SDS011;2832;50.864;12.186;2022-12-11T02:49:54;1.10;;;1.10;;
5620;SDS011;2832;50.864;12.186;2022-12-11T02:52:26;1.00;;;1.00;;
5620;SDS011;2832;50.864;12.186;2022-12-11T02:54:56;1.10;;;1.10;;
5620;SDS011;2832;50.864;12.186;2022-12-11T02:57:26;1.07;;;1.07;;
5620;SDS011;2832;50.864;12.186;2022-12-11T03:00:01;1.10;;;1.10;;
5620;SDS011;2832;50.864;12.186;2022-12-11T03:02:32;1.10;;;1.10;;
5620;SDS011;2832;50.864;12.186;2022-12-11T03:05:00;1.00;;;1.00;;
5620;SDS011;2832;50.864;12.186;2022-12-11T03:07:28;1.10;;;1.10;;
5620;SDS011;2832;50.864;12.186;2022-12-11T03:09:59;1.03;;;1.03;;
5620;SDS011;2832;50.864;12.186;2022-12-11T03:12:29;1.00;;;1.00;;
5620;SDS011;2832;50.864;12.186;2022-12-11T03:15:03;1.10;;;1.10;;
5620;SDS011;2832;50.864;12.186;2022-12-11T03:17:37;1.10;;;1.10;;
5620;SDS011;2832;50.864;12.186;2022-12-11T03:20:11;1.10;;;1.10;;
5620;SDS011;2832;50.864;12.186;2022-12-11T03:22:46;1.00;;;1.00;;
5620;SDS011;2832;50.864;12.186;2022-12-11T03:25:20;1.00;;;1.00;;
5620;SDS011;2832;50.864;12.186;2022-12-11T03:27:53;1.00;;;1.00;;
5620;SDS011;2832;50.864;12.186;2022-12-11T03:30:27;1.10;;;1.10;;
5620;SDS011;2832;50.864;12.186;2022-12-11T03:33:00;1.00;;;1.00;;
5620;SDS011;2832;50.864;12.186;2022-12-11T03:35:31;1.00;;;1.00;;
5620;SDS011;2832;50.864;12.186;2022-12-11T03:38:03;1.00;;;1.00;;
5620;SDS011;2832;50.864;12.186;2022-12-11T03:40:34;1.00;;;1.00;;
5620;SDS011;2832;50.864;12.186;2022-12-11T03:43:03;1.07;;;1.07;;
5620;SDS011;2832;50.864;12.186;2022-12-11T03:45:34;1.00;;;1.00;;
5620;SDS011;2832;50.864;12.186;2022-12-11T03:48:04;1.10;;;1.10;;
5620;SDS011;2832;50.864;12.186;2022-12-11T03:50:35;1.10;;;1.10;;
5620;SDS011;2832;50.864;12.186;2022-12-11T03:53:03;1.03;;;1.03;;
5620;SDS011;2832;50.864;12.186;2022-12-11T03:55:32;1.10;;;1.10;;
5620;SDS011;2832;50.864;12.186;2022-12-11T03:58:03;1.00;;;1.00;;
5620;SDS011;2832;50.864;12.186;2022-12-11T04:00:31;1.00;;;1.00;;
5620;SDS011;2832;50.864;12.186;2022-12-11T04:03:01;1.10;;;1.10;;
5620;SDS011;2832;50.864;12.186;2022-12-11T04:05:43;1.00;;;1.00;;
5620;SDS011;2832;50.864;12.186;2022-12-11T04:08:13;1.03;;;1.03;;
5620;SDS011;2832;50.864;12.186;2022-12-11T04:10:41;1.10;;;1.10;;
5620;SDS011;2832;50.864;12.186;2022-12-11T04:13:09;1.10;;;1.10;;
5620;SDS011;2832;50.864;12.186;2022-12-11T04:15:38;1.10;;;1.10;;
5620;SDS011;2832;50.864;12.186;2022-12-11T04:18:06;1.10;;;1.10;;
5620;SDS011;2832;50.864;12.186;2022-12-11T04:20:53;1.00;;;1.00;;
5620;SDS011;2832;50.864;12.186;2022-12-11T04:23:39;1.07;;;1.07;;
5620;SDS011;2832;50.864;12.186;2022-12-11T04:26:24;1.10;;;1.10;;
5620;SDS011;2832;50.864;12.186;2022-12-11T04:28:52;1.10;;;1.10;;
5620;SDS011;2832;50.864;12.186;2022-12-11T04:31:21;1.00;;;1.00;;
5620;SDS011;2832;50.864;12.186;2022-12-11T04:33:49;1.10;;;1.10;;
5620;SDS011;2832;50.864;12.186;2022-12-11T04:36:17;1.10;;;1.10;;
5620;SDS011;2832;50.864;12.186;2022-12-11T04:38:45;1.10;;;1.10;;
5620;SDS011;2832;50.864;12.186;2022-12-11T04:41:13;1.07;;;1.07;;
5620;SDS011;2832;50.864;12.186;2022-12-11T04:43:42;1.10;;;1.10;;
5620;SDS011;2832;50.864;12.186;2022-12-11T04:46:13;1.10;;;1.10;;
5620;SDS011;2832;50.864;12.186;2022-12-11T04:48:43;1.00;;;1.00;;
5620;SDS011;2832;50.864;12.186;2022-12-11T04:51:12;1.10;;;1.10;;
5620;SDS011;2832;50.864;12.186;2022-12-11T04:53:40;1.10;;;1.10;;
5620;SDS011;2832;50.864;12.186;2022-12-11T04:56:09;1.00;;;1.00;;
5620;SDS011;2832;50.864;12.186;2022-12-11T04:58:38;1.10;;;1.10;;
5620;SDS011;2832;50.864;12.186;2022-12-11T05:01:08;1.00;;;1.00;;
5620;SDS011;2832;50.864;12.186;2022-12-11T05:03:36;1.10;;;1.10;;
5620;SDS011;2832;50.864;12.186;2022-12-11T05:06:06;1.00;;;1.00;;
5620;SDS011;2832;50.864;12.186;2022-12-11T05:08:36;1.10;;;1.10;;
5620;SDS011;2832;50.864;12.186;2022-12-11T05:11:06;1.10;;;1.10;;
5620;SDS011;2832;50.864;12.186;2022-12-11T05:13:38;1.10;;;1.10;;
5620;SDS011;2832;50.864;12.186;2022-12-11T05:16:06;1.10;;;1.10;;
5620;SDS011;2832;50.864;12.186;2022-12-11T05:18:35;1.10;;;1.10;;
5620;SDS011;2832;50.864;12.186;2022-12-11T05:21:03;1.07;;;1.07;;
5620;SDS011;2832;50.864;12.186;2022-12-11T05:23:35;1.10;;;1.10;;
5620;SDS011;2832;50.864;12.186;2022-12-11T05:26:04;1.10;;;1.10;;
5620;SDS011;2832;50.864;12.186;2022-12-11T05:28:34;1.00;;;1.00;;
5620;SDS011;2832;50.864;12.186;2022-12-11T05:31:04;1.10;;;1.10;;
5620;SDS011;2832;50.864;12.186;2022-12-11T05:33:34;1.10;;;1.10;;
5620;SDS011;2832;50.864;12.186;2022-12-11T05:36:02;1.00;;;1.00;;
5620;SDS011;2832;50.864;12.186;2022-12-11T05:38:34;1.00;;;1.00;;
5620;SDS011;2832;50.864;12.186;2022-12-11T05:41:02;1.10;;;1.10;;
5620;SDS011;2832;50.864;12.186;2022-12-11T05:43:34;1.10;;;1.10;;
5620;SDS011;2832;50.864;12.186;2022-12-11T05:46:05;1.00;;;1.00;;
5620;SDS011;2832;50.864;12.186;2022-12-11T05:48:35;1.00;;;1.00;;
5620;SDS011;2832;50.864;12.186;2022-12-11T05:51:04;1.10;;;1.10;;
5620;SDS011;2832;50.864;12.186;2022-12-11T05:53:34;1.00;;;1.00;;
5620;SDS011;2832;50.864;12.186;2022-12-11T05:56:05;1.10;;;1.10;;
5620;SDS011;2832;50.864;12.186;2022-12-11T05:58:36;1.00;;;1.00;;
5620;SDS011;2832;50.864;12.186;2022-12-11T06:01:06;1.00;;;1.00;;
5620;SDS011;2832;50.864;12.186;2022-12-11T06:03:35;1.10;;;1.10;;
5620;SDS011;2832;50.864;12.186;2022-12-11T06:06:05;1.10;;;1.10;;
5620;SDS011;2832;50.864;12.186;2022-12-11T06:08:35;1.10;;;1.10;;
5620;SDS011;2832;50.864;12.186;2022-12-11T06:11:03;1.10;;;1.10;;
5620;SDS011;2832;50.864;12.186;2022-12-11T06:13:33;1.10;;;1.10;;
5620;SDS011;2832;50.864;12.186;2022-12-11T06:16:04;1.10;;;1.10;;
5620;SDS011;2832;50.864;12.186;2022-12-11T06:18:34;1.10;;;1.10;;
5620;SDS011;2832;50.864;12.186;2022-12-11T06:21:09;1.10;;;1.10;;
5620;SDS011;2832;50.864;12.186;2022-12-11T06:23:43;1.10;;;1.10;;
5620;SDS011;2832;50.864;12.186;2022-12-11T06:26:14;1.10;;;1.10;;
5620;SDS011;2832;50.864;12.186;2022-12-11T06:28:43;1.03;;;1.03;;
5620;SDS011;2832;50.864;12.186;2022-12-11T06:31:11;1.10;;;1.10;;
5620;SDS011;2832;50.864;12.186;2022-12-11T06:33:39;1.07;;;1.07;;
5620;SDS011;2832;50.864;12.186;2022-12-11T06:36:08;1.10;;;1.10;;
5620;SDS011;2832;50.864;12.186;2022-12-11T06:38:37;1.10;;;1.10;;
5620;SDS011;2832;50.864;12.186;2022-12-11T06:41:08;1.10;;;1.10;;
5620;SDS011;2832;50.864;12.186;2022-12-11T06:43:37;1.10;;;1.10;;
5620;SDS011;2832;50.864;12.186;2022-12-11T06:46:08;1.10;;;1.10;;
5620;SDS011;2832;50.864;12.186;2022-12-11T06:48:37;1.10;;;1.10;;
5620;SDS011;2832;50.864;12.186;2022-12-11T06:51:08;1.00;;;1.00;;
5620;SDS011;2832;50.864;12.186;2022-12-11T06:53:38;1.10;;;1.10;;
5620;SDS011;2832;50.864;12.186;2022-12-11T06:56:09;1.07;;;1.07;;
5620;SDS011;2832;50.864;12.186;2022-12-11T06:58:39;1.00;;;1.00;;
5620;SDS011;2832;50.864;12.186;2022-12-11T07:01:16;1.10;;;1.10;;
5620;SDS011;2832;50.864;12.186;2022-12-11T07:03:46;1.10;;;1.10;;
5620;SDS011;2832;50.864;12.186;2022-12-11T07:06:14;1.00;;;1.00;;
5620;SDS011;2832;50.864;12.186;2022-12-11T07:08:42;0.20;;;0.20;;
5620;SDS011;2832;50.864;12.186;2022-12-11T07:11:14;0.20;;;0.20;;
5620;SDS011;2832;50.864;12.186;2022-12-11T07:13:43;0.20;;;0.20;;
5620;SDS011;2832;50.864;12.186;2022-12-11T07:16:12;0.27;;;0.27;;
5620;SDS011;2832;50.864;12.186;2022-12-11T07:18:43;0.20;;;0.20;;
5620;SDS011;2832;50.864;12.186;2022-12-11T07:21:13;0.20;;;0.20;;
5620;SDS011;2832;50.864;12.186;2022-12-11T07:23:41;0.20;;;0.20;;
5620;SDS011;2832;50.864;12.186;2022-12-11T07:26:12;0.20;;;0.20;;
5620;SDS011;2832;50.864;12.186;2022-12-11T07:28:42;0.20;;;0.20;;
5620;SDS011;2832;50.864;12.186;2022-12-11T07:31:10;0.30;;;0.30;;
5620;SDS011;2832;50.864;12.186;2022-12-11T07:33:44;0.20;;;0.20;;
5620;SDS011;2832;50.864;12.186;2022-12-11T07:36:13;0.30;;;0.30;;
5620;SDS011;2832;50.864;12.186;2022-12-11T07:38:42;0.30;;;0.30;;
5620;SDS011;2832;50.864;12.186;2022-12-11T07:41:15;0.30;;;0.30;;
5620;SDS011;2832;50.864;12.186;2022-12-11T07:43:43;0.30;;;0.30;;
5620;SDS011;2832;50.864;12.186;2022-12-11T07:46:13;0.20;;;0.20;;
5620;SDS011;2832;50.864;12.186;2022-12-11T07:48:43;0.30;;;0.30;;
5620;SDS011;2832;50.864;12.186;2022-12-11T07:51:13;0.30;;;0.30;;
5620;SDS011;2832;50.864;12.186;2022-12-11T07:53:42;0.20;;;0.20;;
5620;SDS011;2832;50.864;12.186;2022-12-11T07:56:14;0.30;;;0.30;;
5620;SDS011;2832;50.864;12.186;2022-12-11T07:58:42;0.30;;;0.30;;
5620;SDS011;2832;50.864;12.186;2022-12-11T08:01:10;0.30;;;0.30;;
5620;SDS011;2832;50.864;12.186;2022-12-11T08:03:39;0.20;;;0.20;;
5620;SDS011;2832;50.864;12.186;2022-12-11T08:06:08;0.20;;;0.20;;
5620;SDS011;2832;50.864;12.186;2022-12-11T08:08:36;0.20;;;0.20;;
5620;SDS011;2832;50.864;12.186;2022-12-11T08:11:05;0.20;;;0.20;;
5620;SDS011;2832;50.864;12.186;2022-12-11T08:13:42;0.20;;;0.20;;
5620;SDS011;2832;50.864;12.186;2022-12-11T08:16:11;0.30;;;0.30;;
5620;SDS011;2832;50.864;12.186;2022-12-11T08:18:40;0.30;;;0.30;;
5620;SDS011;2832;50.864;12.186;2022-12-11T08:21:10;0.27;;;0.27;;
5620;SDS011;2832;50.864;12.186;2022-12-11T08:23:39;0.20;;;0.20;;
5620;SDS011;2832;50.864;12.186;2022-12-11T08:26:08;0.23;;;0.23;;
5620;SDS011;2832;50.864;12.186;2022-12-11T08:28:43;0.30;;;0.30;;
5620;SDS011;2832;50.864;12.186;2022-12-11T08:31:11;1.10;;;1.10;;
5620;SDS011;2832;50.864;12.186;2022-12-11T08:33:41;1.00;;;1.00;;
5620;SDS011;2832;50.864;12.186;2022-12-11T08:36:10;1.00;;;1.00;;
5620;SDS011;2832;50.864;12.186;2022-12-11T08:38:39;1.10;;;1.10;;
5620;SDS011;2832;50.864;12.186;2022-12-11T08:41:07;1.10;;;1.10;;
5620;SDS011;2832;50.864;12.186;2022-12-11T08:43:35;1.10;;;1.10;;
5620;SDS011;2832;50.864;12.186;2022-12-11T08:46:06;1.00;;;1.00;;
5620;SDS011;2832;50.864;12.186;2022-12-11T08:48:38;1.10;;;1.10;;
5620;SDS011;2832;50.864;12.186;2022-12-11T08:51:09;1.00;;;1.00;;
5620;SDS011;2832;50.864;12.186;2022-12-11T08:53:38;1.10;;;1.10;;
5620;SDS011;2832;50.864;12.186;2022-12-11T08:56:09;1.00;;;1.00;;
5620;SDS011;2832;50.864;12.186;2022-12-11T08:58:38;1.00;;;1.00;;
5620;SDS011;2832;50.864;12.186;2022-12-11T09:01:10;1.07;;;1.07;;
5620;SDS011;2832;50.864;12.186;2022-12-11T09:03:39;1.10;;;1.10;;
5620;SDS011;2832;50.864;12.186;2022-12-11T09:06:08;1.10;;;1.10;;
5620;SDS011;2832;50.864;12.186;2022-12-11T09:08:38;1.00;;;1.00;;
5620;SDS011;2832;50.864;12.186;2022-12-11T09:11:08;1.10;;;1.10;;
5620;SDS011;2832;50.864;12.186;2022-12-11T09:13:38;1.00;;;1.00;;
5620;SDS011;2832;50.864;12.186;2022-12-11T09:16:09;1.10;;;1.10;;
5620;SDS011;2832;50.864;12.186;2022-12-11T09:18:38;1.03;;;1.03;;
5620;SDS011;2832;50.864;12.186;2022-12-11T09:21:08;1.10;;;1.10;;
5620;SDS011;2832;50.864;12.186;2022-12-11T09:23:38;1.10;;;1.10;;
5620;SDS011;2832;50.864;12.186;2022-12-11T09:26:07;1.10;;;1.10;;
5620;SDS011;2832;50.864;12.186;2022-12-11T09:28:37;1.10;;;1.10;;
5620;SDS011;2832;50.864;12.186;2022-12-11T09:31:08;1.00;;;1.00;;
5620;SDS011;2832;50.864;12.186;2022-12-11T09:33:38;1.10;;;1.10;;
5620;SDS011;2832;50.864;12.186;2022-12-11T09:36:06;1.00;;;1.00;;
5620;SDS011;2832;50.864;12.186;2022-12-11T09:38:35;1.10;;;1.10;;
5620;SDS011;2832;50.864;12.186;2022-12-11T09:41:11;1.00;;;1.00;;
5620;SDS011;2832;50.864;12.186;2022-12-11T09:43:58;1.00;;;1.00;;
5620;SDS011;2832;50.864;12.186;2022-12-11T09:46:41;1.00;;;1.00;;
5620;SDS011;2832;50.864;12.186;2022-12-11T09:49:11;1.10;;;1.10;;
5620;SDS011;2832;50.864;12.186;2022-12-11T09:51:49;1.10;;;1.10;;
5620;SDS011;2832;50.864;12.186;2022-12-11T09:54:24;1.00;;;1.00;;
5620;SDS011;2832;50.864;12.186;2022-12-11T09:56:55;1.00;;;1.00;;
5620;SDS011;2832;50.864;12.186;2022-12-11T09:59:31;1.10;;;1.10;;
5620;SDS011;2832;50.864;12.186;2022-12-11T10:02:14;1.10;;;1.10;;
5620;SDS011;2832;50.864;12.186;2022-12-11T10:04:50;1.10;;;1.10;;
5620;SDS011;2832;50.864;12.186;2022-12-11T10:07:27;1.10;;;1.10;;
5620;SDS011;2832;50.864;12.186;2022-12-11T10:10:08;1.10;;;1.10;;
5620;SDS011;2832;50.864;12.186;2022-12-11T10:12:44;1.10;;;1.10;;
5620;SDS011;2832;50.864;12.186;2022-12-11T10:15:24;1.00;;;1.00;;
5620;SDS011;2832;50.864;12.186;2022-12-11T10:18:04;1.00;;;1.00;;
5620;SDS011;2832;50.864;12.186;2022-12-11T10:20:38;1.10;;;1.10;;
5620;SDS011;2832;50.864;12.186;2022-12-11T10:23:07;1.00;;;1.00;;
5620;SDS011;2832;50.864;12.186;2022-12-11T10:25:43;1.10;;;1.10;;
5620;SDS011;2832;50.864;12.186;2022-12-11T10:28:16;1.10;;;1.10;;
5620;SDS011;2832;50.864;12.186;2022-12-11T10:30:47;1.10;;;1.10;;
5620;SDS011;2832;50.864;12.186;2022-12-11T10:33:19;1.10;;;1.10;;
5620;SDS011;2832;50.864;12.186;2022-12-11T10:35:49;1.10;;;1.10;;
5620;SDS011;2832;50.864;12.186;2022-12-11T10:38:20;1.10;;;1.10;;
5620;SDS011;2832;50.864;12.186;2022-12-11T10:40:53;1.00;;;1.00;;
5620;SDS011;2832;50.864;12.186;2022-12-11T10:43:33;1.10;;;1.10;;
5620;SDS011;2832;50.864;12.186;2022-12-11T10:46:04;1.00;;;1.00;;
5620;SDS011;2832;50.864;12.186;2022-12-11T10:48:34;1.10;;;1.10;;
5620;SDS011;2832;50.864;12.186;2022-12-11T10:51:12;1.10;;;1.10;;
5620;SDS011;2832;50.864;12.186;2022-12-11T10:53:40;1.10;;;1.10;;
5620;SDS011;2832;50.864;12.186;2022-12-11T10:56:09;1.00;;;1.00;;
5620;SDS011;2832;50.864;12.186;2022-12-11T10:58:39;1.10;;;1.10;;
5620;SDS011;2832;50.864;12.186;2022-12-11T11:01:28;1.00;;;1.00;;
5620;SDS011;2832;50.864;12.186;2022-12-11T11:04:01;1.00;;;1.00;;
5620;SDS011;2832;50.864;12.186;2022-12-11T11:06:31;1.00;;;1.00;;
5620;SDS011;2832;50.864;12.186;2022-12-11T11:09:02;1.00;;;1.00;;
5620;SDS011;2832;50.864;12.186;2022-12-11T11:11:31;1.10;;;1.10;;
5620;SDS011;2832;50.864;12.186;2022-12-11T11:14:05;1.10;;;1.10;;
5620;SDS011;2832;50.864;12.186;2022-12-11T11:16:39;1.00;;;1.00;;
5620;SDS011;2832;50.864;12.186;2022-12-11T11:19:14;1.10;;;1.10;;
5620;SDS011;2832;50.864;12.186;2022-12-11T11:21:47;1.03;;;1.03;;
5620;SDS011;2832;50.864;12.186;2022-12-11T11:24:25;1.07;;;1.07;;
5620;SDS011;2832;50.864;12.186;2022-12-11T11:27:11;1.10;;;1.10;;
5620;SDS011;2832;50.864;12.186;2022-12-11T11:29:56;1.07;;;1.07;;
5620;SDS011;2832;50.864;12.186;2022-12-11T11:32:28;1.10;;;1.10;;
5620;SDS011;2832;50.864;12.186;2022-12-11T11:35:14;1.00;;;1.00;;
5620;SDS011;2832;50.864;12.186;2022-12-11T11:37:46;1.07;;;1.07;;
5620;SDS011;2832;50.864;12.186;2022-12-11T11:40:26;1.10;;;1.10;;
5620;SDS011;2832;50.864;12.186;2022-12-11T11:43:02;1.10;;;1.10;;
5620;SDS011;2832;50.864;12.186;2022-12-11T11:45:38;1.00;;;1.00;;
5620;SDS011;2832;50.864;12.186;2022-12-11T11:48:20;1.00;;;1.00;;
5620;SDS011;2832;50.864;12.186;2022-12-11T11:51:05;1.10;;;1.10;;
5620;SDS011;2832;50.864;12.186;2022-12-11T11:53:40;1.10;;;1.10;;
5620;SDS011;2832;50.864;12.186;2022-12-11T11:56:18;1.10;;;1.10;;
5620;SDS011;2832;50.864;12.186;2022-12-11T11:58:51;1.03;;;1.03;;
5620;SDS011;2832;50.864;12.186;2022-12-11T12:01:27;1.00;;;1.00;;
5620;SDS011;2832;50.864;12.186;2022-12-11T12:03:55;1.10;;;1.10;;
5620;SDS011;2832;50.864;12.186;2022-12-11T12:09:30;1.10;;;1.10;;
5620;SDS011;2832;50.864;12.186;2022-12-11T12:12:14;1.10;;;1.10;;
5620;SDS011;2832;50.864;12.186;2022-12-11T12:14:51;1.10;;;1.10;;
5620;SDS011;2832;50.864;12.186;2022-12-11T12:17:29;1.10;;;1.10;;
5620;SDS011;2832;50.864;12.186;2022-12-11T12:20:10;1.03;;;1.03;;
5620;SDS011;2832;50.864;12.186;2022-12-11T12:22:59;1.10;;;1.10;;
5620;SDS011;2832;50.864;12.186;2022-12-11T12:25:39;1.00;;;1.00;;
5620;SDS011;2832;50.864;12.186;2022-12-11T12:28:16;1.10;;;1.10;;
5620;SDS011;2832;50.864;12.186;2022-12-11T12:30:54;1.10;;;1.10;;
5620;SDS011;2832;50.864;12.186;2022-12-11T12:33:34;1.07;;;1.07;;
5620;SDS011;2832;50.864;12.186;2022-12-11T12:36:16;1.03;;;1.03;;
5620;SDS011;2832;50.864;12.186;2022-12-11T12:38:54;1.00;;;1.00;;
5620;SDS011;2832;50.864;12.186;2022-12-11T12:41:32;1.10;;;1.10;;
5620;SDS011;2832;50.864;12.186;2022-12-11T12:44:14;1.10;;;1.10;;
5620;SDS011;2832;50.864;12.186;2022-12-11T12:46:50;1.10;;;1.10;;
5620;SDS011;2832;50.864;12.186;2022-12-11T12:49:33;1.10;;;1.10;;
5620;SDS011;2832;50.864;12.186;2022-12-11T12:52:10;1.10;;;1.10;;
5620;SDS011;2832;50.864;12.186;2022-12-11T12:54:44;1.10;;;1.10;;
5620;SDS011;2832;50.864;12.186;2022-12-11T12:57:34;1.10;;;1.10;;
5620;SDS011;2832;50.864;12.186;2022-12-11T13:00:07;1.10;;;1.10;;
5620;SDS011;2832;50.864;12.186;2022-12-11T13:02:46;1.00;;;1.00;;
5620;SDS011;2832;50.864;12.186;2022-12-11T13:05:21;1.10;;;1.10;;
5620;SDS011;2832;50.864;12.186;2022-12-11T13:07:52;1.10;;;1.10;;
5620;SDS011;2832;50.864;12.186;2022-12-11T13:10:33;1.10;;;1.10;;
5620;SDS011;2832;50.864;12.186;2022-12-11T13:13:04;1.10;;;1.10;;
5620;SDS011;2832;50.864;12.186;2022-12-11T13:15:52;1.10;;;1.10;;
5620;SDS011;2832;50.864;12.186;2022-12-11T13:18:30;1.10;;;1.10;;
5620;SDS011;2832;50.864;12.186;2022-12-11T13:21:00;1.00;;;1.00;;
5620;SDS011;2832;50.864;12.186;2022-12-11T13:23:30;1.10;;;1.10;;
5620;SDS011;2832;50.864;12.186;2022-12-11T13:26:02;1.10;;;1.10;;
5620;SDS011;2832;50.864;12.186;2022-12-11T13:28:32;1.00;;;1.00;;
5620;SDS011;2832;50.864;12.186;2022-12-11T13:31:27;1.07;;;1.07;;
5620;SDS011;2832;50.864;12.186;2022-12-11T13:34:06;1.07;;;1.07;;
5620;SDS011;2832;50.864;12.186;2022-12-11T13:36:45;1.10;;;1.10;;
5620;SDS011;2832;50.864;12.186;2022-12-11T13:39:16;1.00;;;1.00;;
5620;SDS011;2832;50.864;12.186;2022-12-11T13:41:50;1.10;;;1.10;;
5620;SDS011;2832;50.864;12.186;2022-12-11T13:44:22;1.10;;;1.10;;
5620;SDS011;2832;50.864;12.186;2022-12-11T13:46:53;1.03;;;1.03;;
5620;SDS011;2832;50.864;12.186;2022-12-11T13:49:24;1.10;;;1.10;;
5620;SDS011;2832;50.864;12.186;2022-12-11T13:51:55;1.00;;;1.00;;
5620;SDS011;2832;50.864;12.186;2022-12-11T13:54:25;1.10;;;1.10;;
5620;SDS011;2832;50.864;12.186;2022-12-11T13:56:56;1.10;;;1.10;;
5620;SDS011;2832;50.864;12.186;2022-12-11T13:59:31;1.10;;;1.10;;
5620;SDS011;2832;50.864;12.186;2022-12-11T14:02:03;1.00;;;1.00;;
5620;SDS011;2832;50.864;12.186;2022-12-11T14:04:38;1.10;;;1.10;;
5620;SDS011;2832;50.864;12.186;2022-12-11T14:07:07;1.10;;;1.10;;
5620;SDS011;2832;50.864;12.186;2022-12-11T14:09:38;1.00;;;1.00;;
5620;SDS011;2832;50.864;12.186;2022-12-11T14:12:15;1.10;;;1.10;;
5620;SDS011;2832;50.864;12.186;2022-12-11T14:14:47;1.10;;;1.10;;
5620;SDS011;2832;50.864;12.186;2022-12-11T14:17:19;1.10;;;1.10;;
5620;SDS011;2832;50.864;12.186;2022-12-11T14:19:50;1.10;;;1.10;;
5620;SDS011;2832;50.864;12.186;2022-12-11T14:22:20;1.10;;;1.10;;
5620;SDS011;2832;50.864;12.186;2022-12-11T14:24:50;1.10;;;1.10;;
5620;SDS011;2832;50.864;12.186;2022-12-11T14:27:20;1.10;;;1.10;;
5620;SDS011;2832;50.864;12.186;2022-12-11T14:29:49;1.00;;;1.00;;
5620;SDS011;2832;50.864;12.186;2022-12-11T14:32:19;1.00;;;1.00;;
5620;SDS011;2832;50.864;12.186;2022-12-11T14:34:55;1.00;;;1.00;;
5620;SDS011;2832;50.864;12.186;2022-12-11T14:37:23;1.10;;;1.10;;
5620;SDS011;2832;50.864;12.186;2022-12-11T14:39:55;1.10;;;1.10;;
5620;SDS011;2832;50.864;12.186;2022-12-11T14:42:28;1.10;;;1.10;;
5620;SDS011;2832;50.864;12.186;2022-12-11T14:45:02;1.00;;;1.00;;
5620;SDS011;2832;50.864;12.186;2022-12-11T14:47:37;1.10;;;1.10;;
5620;SDS011;2832;50.864;12.186;2022-12-11T14:50:10;1.07;;;1.07;;
5620;SDS011;2832;50.864;12.186;2022-12-11T14:52:46;1.10;;;1.10;;
5620;SDS011;2832;50.864;12.186;2022-12-11T14:55:21;1.10;;;1.10;;
5620;SDS011;2832;50.864;12.186;2022-12-11T14:57:55;1.10;;;1.10;;
5620;SDS011;2832;50.864;12.186;2022-12-11T15:00:25;1.10;;;1.10;;
5620;SDS011;2832;50.864;12.186;2022-12-11T15:02:56;1.10;;;1.10;;
5620;SDS011;2832;50.864;12.186;2022-12-11T15:05:27;1.10;;;1.10;;
5620;SDS011;2832;50.864;12.186;2022-12-11T15:07:59;1.10;;;1.10;;
5620;SDS011;2832;50.864;12.186;2022-12-11T15:10:31;1.10;;;1.10;;
5620;SDS011;2832;50.864;12.186;2022-12-11T15:13:04;1.10;;;1.10;;
5620;SDS011;2832;50.864;12.186;2022-12-11T15:15:37;1.10;;;1.10;;
5620;SDS011;2832;50.864;12.186;2022-12-11T15:18:13;1.10;;;1.10;;
5620;SDS011;2832;50.864;12.186;2022-12-11T15:20:48;1.10;;;1.10;;
5620;SDS011;2832;50.864;12.186;2022-12-11T15:23:18;1.10;;;1.10;;
5620;SDS011;2832;50.864;12.186;2022-12-11T15:25:51;1.00;;;1.00;;
5620;SDS011;2832;50.864;12.186;2022-12-11T15:28:26;1.00;;;1.00;;
5620;SDS011;2832;50.864;12.186;2022-12-11T15:30:58;1.00;;;1.00;;
5620;SDS011;2832;50.864;12.186;2022-12-11T15:33:30;1.10;;;1.10;;